sensor_id;sensor_type;location;lat;lon;timestamp;temperature;humidity
37806;DHT22;25082;50.870;0.022;2024-01-27T00:01:39;16.40;59.80
37806;DHT22;25082;50.870;0.022;2024-01-27T00:04:05;16.40;59.70
37806;DHT22;25082;50.870;0.022;2024-01-27T00:06:31;16.40;59.70
37806;DHT22;25082;50.870;0.022;2024-01-27T00:08:57;16.40;59.70
37806;DHT22;25082;50.870;0.022;2024-01-27T00:11:22;16.30;59.60
37806;DHT22;25082;50.870;0.022;2024-01-27T00:13:52;16.30;59.60
37806;DHT22;25082;50.870;0.022;2024-01-27T00:16:18;16.30;59.60
37806;DHT22;25082;50.870;0.022;2024-01-27T00:18:44;16.30;59.50
37806;DHT22;25082;50.870;0.022;2024-01-27T00:21:09;16.30;59.50
37806;DHT22;25082;50.870;0.022;2024-01-27T00:23:35;16.30;59.50
37806;DHT22;25082;50.870;0.022;2024-01-27T00:26:01;16.30;59.50
37806;DHT22;25082;50.870;0.022;2024-01-27T00:28:27;16.30;59.50
37806;DHT22;25082;50.870;0.022;2024-01-27T00:30:53;16.30;59.50
37806;DHT22;25082;50.870;0.022;2024-01-27T00:33:19;16.30;59.50
37806;DHT22;25082;50.870;0.022;2024-01-27T00:35:44;16.30;59.50
37806;DHT22;25082;50.870;0.022;2024-01-27T00:38:10;16.30;59.60
37806;DHT22;25082;50.870;0.022;2024-01-27T00:40:36;16.30;59.50
37806;DHT22;25082;50.870;0.022;2024-01-27T00:43:05;16.30;59.50
37806;DHT22;25082;50.870;0.022;2024-01-27T00:45:30;16.30;59.40
37806;DHT22;25082;50.870;0.022;2024-01-27T00:47:57;16.20;59.40
37806;DHT22;25082;50.870;0.022;2024-01-27T00:50:23;16.20;59.30
37806;DHT22;25082;50.870;0.022;2024-01-27T00:52:49;16.20;59.20
37806;DHT22;25082;50.870;0.022;2024-01-27T00:55:15;16.20;59.20
37806;DHT22;25082;50.870;0.022;2024-01-27T00:57:40;16.20;59.10
37806;DHT22;25082;50.870;0.022;2024-01-27T01:00:10;16.20;59.10
37806;DHT22;25082;50.870;0.022;2024-01-27T01:02:37;16.20;59.10
37806;DHT22;25082;50.870;0.022;2024-01-27T01:05:04;16.20;59.10
37806;DHT22;25082;50.870;0.022;2024-01-27T01:07:33;16.20;59.00
37806;DHT22;25082;50.870;0.022;2024-01-27T01:09:58;16.20;59.00
37806;DHT22;25082;50.870;0.022;2024-01-27T01:12:24;16.10;58.90
37806;DHT22;25082;50.870;0.022;2024-01-27T01:14:51;16.10;58.90
37806;DHT22;25082;50.870;0.022;2024-01-27T01:17:17;16.10;58.90
37806;DHT22;25082;50.870;0.022;2024-01-27T01:19:43;16.10;58.80
37806;DHT22;25082;50.870;0.022;2024-01-27T01:22:09;16.10;58.80
37806;DHT22;25082;50.870;0.022;2024-01-27T01:24:35;16.10;58.80
37806;DHT22;25082;50.870;0.022;2024-01-27T01:27:00;16.10;58.70
37806;DHT22;25082;50.870;0.022;2024-01-27T01:29:26;16.10;58.70
37806;DHT22;25082;50.870;0.022;2024-01-27T01:31:53;16.10;58.70
37806;DHT22;25082;50.870;0.022;2024-01-27T01:34:19;16.10;58.70
37806;DHT22;25082;50.870;0.022;2024-01-27T01:36:45;16.00;58.70
37806;DHT22;25082;50.870;0.022;2024-01-27T01:39:11;16.00;58.70
37806;DHT22;25082;50.870;0.022;2024-01-27T01:41:40;16.10;58.70
37806;DHT22;25082;50.870;0.022;2024-01-27T01:44:07;16.00;58.70
37806;DHT22;25082;50.870;0.022;2024-01-27T01:46:33;16.00;58.70
37806;DHT22;25082;50.870;0.022;2024-01-27T01:48:59;16.00;58.70
37806;DHT22;25082;50.870;0.022;2024-01-27T01:51:26;16.00;58.70
37806;DHT22;25082;50.870;0.022;2024-01-27T01:53:54;16.00;58.70
37806;DHT22;25082;50.870;0.022;2024-01-27T01:56:22;15.90;58.70
37806;DHT22;25082;50.870;0.022;2024-01-27T01:58:48;15.90;58.80
37806;DHT22;25082;50.870;0.022;2024-01-27T02:01:14;15.90;58.80
37806;DHT22;25082;50.870;0.022;2024-01-27T02:03:54;15.90;58.80
37806;DHT22;25082;50.870;0.022;2024-01-27T02:06:20;15.90;58.80
37806;DHT22;25082;50.870;0.022;2024-01-27T02:08:46;15.90;58.80
37806;DHT22;25082;50.870;0.022;2024-01-27T02:11:12;15.80;58.70
37806;DHT22;25082;50.870;0.022;2024-01-27T02:13:37;15.90;58.80
37806;DHT22;25082;50.870;0.022;2024-01-27T02:16:03;15.80;58.80
37806;DHT22;25082;50.870;0.022;2024-01-27T02:18:29;15.80;58.80
37806;DHT22;25082;50.870;0.022;2024-01-27T02:20:55;15.80;58.80
37806;DHT22;25082;50.870;0.022;2024-01-27T02:23:21;15.80;58.80
37806;DHT22;25082;50.870;0.022;2024-01-27T02:25:46;15.80;58.90
37806;DHT22;25082;50.870;0.022;2024-01-27T02:28:12;15.80;59.00
37806;DHT22;25082;50.870;0.022;2024-01-27T02:30:39;15.80;58.90
37806;DHT22;25082;50.870;0.022;2024-01-27T02:33:05;15.80;59.00
37806;DHT22;25082;50.870;0.022;2024-01-27T02:35:31;15.80;59.00
37806;DHT22;25082;50.870;0.022;2024-01-27T02:37:56;15.80;59.00
37806;DHT22;25082;50.870;0.022;2024-01-27T02:40:22;15.80;59.00
37806;DHT22;25082;50.870;0.022;2024-01-27T02:42:48;15.80;59.00
37806;DHT22;25082;50.870;0.022;2024-01-27T02:45:14;15.70;58.90
37806;DHT22;25082;50.870;0.022;2024-01-27T02:47:40;15.80;59.00
37806;DHT22;25082;50.870;0.022;2024-01-27T02:50:06;15.80;59.00
37806;DHT22;25082;50.870;0.022;2024-01-27T02:52:32;15.70;58.90
37806;DHT22;25082;50.870;0.022;2024-01-27T02:54:58;15.70;59.00
37806;DHT22;25082;50.870;0.022;2024-01-27T02:57:24;15.70;58.90
37806;DHT22;25082;50.870;0.022;2024-01-27T02:59:49;15.70;58.90
37806;DHT22;25082;50.870;0.022;2024-01-27T03:02:15;15.70;58.90
37806;DHT22;25082;50.870;0.022;2024-01-27T03:04:41;15.70;58.90
37806;DHT22;25082;50.870;0.022;2024-01-27T03:07:07;15.70;59.00
37806;DHT22;25082;50.870;0.022;2024-01-27T03:09:33;15.70;58.90
37806;DHT22;25082;50.870;0.022;2024-01-27T03:11:59;15.60;58.90
37806;DHT22;25082;50.870;0.022;2024-01-27T03:14:24;15.70;58.90
37806;DHT22;25082;50.870;0.022;2024-01-27T03:16:50;15.60;58.80
37806;DHT22;25082;50.870;0.022;2024-01-27T03:19:16;15.60;58.90
37806;DHT22;25082;50.870;0.022;2024-01-27T03:21:42;15.60;58.90
37806;DHT22;25082;50.870;0.022;2024-01-27T03:24:08;15.60;58.80
37806;DHT22;25082;50.870;0.022;2024-01-27T03:26:34;15.60;58.80
37806;DHT22;25082;50.870;0.022;2024-01-27T03:28:59;15.60;58.80
37806;DHT22;25082;50.870;0.022;2024-01-27T03:31:32;15.60;58.80
37806;DHT22;25082;50.870;0.022;2024-01-27T03:33:59;15.60;58.90
37806;DHT22;25082;50.870;0.022;2024-01-27T03:36:25;15.60;58.90
37806;DHT22;25082;50.870;0.022;2024-01-27T03:38:51;15.60;58.90
37806;DHT22;25082;50.870;0.022;2024-01-27T03:41:16;15.50;58.70
37806;DHT22;25082;50.870;0.022;2024-01-27T03:43:42;15.60;58.50
37806;DHT22;25082;50.870;0.022;2024-01-27T03:46:08;15.60;58.40
37806;DHT22;25082;50.870;0.022;2024-01-27T03:48:34;15.60;58.30
37806;DHT22;25082;50.870;0.022;2024-01-27T03:51:02;15.60;58.40
37806;DHT22;25082;50.870;0.022;2024-01-27T03:53:28;15.60;58.40
37806;DHT22;25082;50.870;0.022;2024-01-27T03:55:54;15.60;58.30
37806;DHT22;25082;50.870;0.022;2024-01-27T03:58:20;15.70;58.30
37806;DHT22;25082;50.870;0.022;2024-01-27T04:00:46;15.70;58.30
37806;DHT22;25082;50.870;0.022;2024-01-27T04:03:11;15.70;58.20
37806;DHT22;25082;50.870;0.022;2024-01-27T04:05:37;15.70;58.20
37806;DHT22;25082;50.870;0.022;2024-01-27T04:08:05;15.70;58.10
37806;DHT22;25082;50.870;0.022;2024-01-27T04:10:31;15.70;58.20
37806;DHT22;25082;50.870;0.022;2024-01-27T04:12:57;15.70;58.20
37806;DHT22;25082;50.870;0.022;2024-01-27T04:15:23;15.70;58.30
37806;DHT22;25082;50.870;0.022;2024-01-27T04:17:49;15.70;58.30
37806;DHT22;25082;50.870;0.022;2024-01-27T04:20:14;15.70;58.30
37806;DHT22;25082;50.870;0.022;2024-01-27T04:22:40;15.70;58.30
37806;DHT22;25082;50.870;0.022;2024-01-27T04:25:06;15.70;58.30
37806;DHT22;25082;50.870;0.022;2024-01-27T04:27:36;15.80;58.40
37806;DHT22;25082;50.870;0.022;2024-01-27T04:30:01;15.80;58.40
37806;DHT22;25082;50.870;0.022;2024-01-27T04:32:27;15.80;58.40
37806;DHT22;25082;50.870;0.022;2024-01-27T04:34:53;15.80;58.50
37806;DHT22;25082;50.870;0.022;2024-01-27T04:37:19;15.80;58.50
37806;DHT22;25082;50.870;0.022;2024-01-27T04:39:45;15.80;58.60
37806;DHT22;25082;50.870;0.022;2024-01-27T04:42:10;15.80;58.60
37806;DHT22;25082;50.870;0.022;2024-01-27T04:44:40;15.80;58.60
37806;DHT22;25082;50.870;0.022;2024-01-27T04:47:06;15.80;58.60
37806;DHT22;25082;50.870;0.022;2024-01-27T04:49:32;15.90;58.70
37806;DHT22;25082;50.870;0.022;2024-01-27T04:51:58;15.90;58.70
37806;DHT22;25082;50.870;0.022;2024-01-27T04:54:23;15.90;58.70
37806;DHT22;25082;50.870;0.022;2024-01-27T04:56:50;15.90;58.70
37806;DHT22;25082;50.870;0.022;2024-01-27T04:59:16;15.90;58.80
37806;DHT22;25082;50.870;0.022;2024-01-27T05:01:46;15.90;59.30
37806;DHT22;25082;50.870;0.022;2024-01-27T05:04:12;15.90;59.40
37806;DHT22;25082;50.870;0.022;2024-01-27T05:06:38;15.90;59.80
37806;DHT22;25082;50.870;0.022;2024-01-27T05:09:07;15.90;59.80
37806;DHT22;25082;50.870;0.022;2024-01-27T05:11:33;15.90;59.80
37806;DHT22;25082;50.870;0.022;2024-01-27T05:13:59;15.90;60.60
37806;DHT22;25082;50.870;0.022;2024-01-27T05:16:26;15.90;59.60
37806;DHT22;25082;50.870;0.022;2024-01-27T05:18:52;16.00;59.80
37806;DHT22;25082;50.870;0.022;2024-01-27T05:21:18;15.90;59.60
37806;DHT22;25082;50.870;0.022;2024-01-27T05:23:44;15.90;59.70
37806;DHT22;25082;50.870;0.022;2024-01-27T05:26:10;16.00;60.00
37806;DHT22;25082;50.870;0.022;2024-01-27T05:28:39;16.00;59.90
37806;DHT22;25082;50.870;0.022;2024-01-27T05:31:08;16.00;59.90
37806;DHT22;25082;50.870;0.022;2024-01-27T05:33:35;16.00;60.00
37806;DHT22;25082;50.870;0.022;2024-01-27T05:36:01;16.00;60.00
37806;DHT22;25082;50.870;0.022;2024-01-27T05:38:27;16.00;60.10
37806;DHT22;25082;50.870;0.022;2024-01-27T05:40:54;16.00;59.90
37806;DHT22;25082;50.870;0.022;2024-01-27T05:43:19;16.00;59.80
37806;DHT22;25082;50.870;0.022;2024-01-27T05:45:46;16.00;60.00
37806;DHT22;25082;50.870;0.022;2024-01-27T05:48:12;16.00;59.80
37806;DHT22;25082;50.870;0.022;2024-01-27T05:50:39;16.00;59.90
37806;DHT22;25082;50.870;0.022;2024-01-27T05:53:05;16.00;60.00
37806;DHT22;25082;50.870;0.022;2024-01-27T05:55:31;16.00;59.80
37806;DHT22;25082;50.870;0.022;2024-01-27T05:57:59;16.00;60.10
37806;DHT22;25082;50.870;0.022;2024-01-27T06:00:25;16.00;60.30
37806;DHT22;25082;50.870;0.022;2024-01-27T06:02:50;16.00;60.30
37806;DHT22;25082;50.870;0.022;2024-01-27T06:05:17;16.00;60.30
37806;DHT22;25082;50.870;0.022;2024-01-27T06:07:42;16.00;61.10
37806;DHT22;25082;50.870;0.022;2024-01-27T06:10:09;16.00;60.60
37806;DHT22;25082;50.870;0.022;2024-01-27T06:12:36;16.00;60.40
37806;DHT22;25082;50.870;0.022;2024-01-27T06:15:01;16.00;60.50
37806;DHT22;25082;50.870;0.022;2024-01-27T06:17:28;16.00;60.90
37806;DHT22;25082;50.870;0.022;2024-01-27T06:19:54;16.00;60.10
37806;DHT22;25082;50.870;0.022;2024-01-27T06:22:20;16.00;60.00
37806;DHT22;25082;50.870;0.022;2024-01-27T06:24:45;16.00;59.90
37806;DHT22;25082;50.870;0.022;2024-01-27T06:27:11;16.00;60.30
37806;DHT22;25082;50.870;0.022;2024-01-27T06:29:37;16.00;61.40
37806;DHT22;25082;50.870;0.022;2024-01-27T06:32:04;16.00;60.70
37806;DHT22;25082;50.870;0.022;2024-01-27T06:34:31;16.00;60.70
37806;DHT22;25082;50.870;0.022;2024-01-27T06:36:57;16.00;61.00
37806;DHT22;25082;50.870;0.022;2024-01-27T06:39:22;16.00;60.70
37806;DHT22;25082;50.870;0.022;2024-01-27T06:41:48;16.00;60.30
37806;DHT22;25082;50.870;0.022;2024-01-27T06:44:14;16.00;60.40
37806;DHT22;25082;50.870;0.022;2024-01-27T06:46:40;16.00;59.90
37806;DHT22;25082;50.870;0.022;2024-01-27T06:49:05;16.00;60.10
37806;DHT22;25082;50.870;0.022;2024-01-27T06:51:31;16.00;60.20
37806;DHT22;25082;50.870;0.022;2024-01-27T06:53:57;16.00;59.90
37806;DHT22;25082;50.870;0.022;2024-01-27T06:56:23;16.00;60.00
37806;DHT22;25082;50.870;0.022;2024-01-27T06:58:48;16.00;59.60
37806;DHT22;25082;50.870;0.022;2024-01-27T07:01:14;16.00;59.60
37806;DHT22;25082;50.870;0.022;2024-01-27T07:03:40;15.90;59.60
37806;DHT22;25082;50.870;0.022;2024-01-27T07:06:06;15.90;59.60
37806;DHT22;25082;50.870;0.022;2024-01-27T07:08:32;16.00;59.60
37806;DHT22;25082;50.870;0.022;2024-01-27T07:10:58;15.90;59.40
37806;DHT22;25082;50.870;0.022;2024-01-27T07:13:24;15.90;59.40
37806;DHT22;25082;50.870;0.022;2024-01-27T07:15:50;15.90;59.40
37806;DHT22;25082;50.870;0.022;2024-01-27T07:18:15;15.90;59.40
37806;DHT22;25082;50.870;0.022;2024-01-27T07:20:43;15.90;59.30
37806;DHT22;25082;50.870;0.022;2024-01-27T07:23:08;15.90;59.30
37806;DHT22;25082;50.870;0.022;2024-01-27T07:25:34;15.90;59.20
37806;DHT22;25082;50.870;0.022;2024-01-27T07:28:00;15.90;59.30
37806;DHT22;25082;50.870;0.022;2024-01-27T07:30:26;15.90;59.40
37806;DHT22;25082;50.870;0.022;2024-01-27T07:32:51;15.90;59.40
37806;DHT22;25082;50.870;0.022;2024-01-27T07:35:17;15.90;59.30
37806;DHT22;25082;50.870;0.022;2024-01-27T07:37:43;15.90;59.30
37806;DHT22;25082;50.870;0.022;2024-01-27T07:40:09;15.90;59.30
37806;DHT22;25082;50.870;0.022;2024-01-27T07:42:35;15.90;59.30
37806;DHT22;25082;50.870;0.022;2024-01-27T07:45:01;15.90;59.40
37806;DHT22;25082;50.870;0.022;2024-01-27T07:47:27;15.90;59.30
37806;DHT22;25082;50.870;0.022;2024-01-27T07:49:53;15.90;59.30
37806;DHT22;25082;50.870;0.022;2024-01-27T07:52:19;15.90;59.30
37806;DHT22;25082;50.870;0.022;2024-01-27T07:54:45;15.90;59.30
37806;DHT22;25082;50.870;0.022;2024-01-27T07:57:11;15.90;59.30
37806;DHT22;25082;50.870;0.022;2024-01-27T07:59:39;15.90;59.20
37806;DHT22;25082;50.870;0.022;2024-01-27T08:02:05;15.90;59.30
37806;DHT22;25082;50.870;0.022;2024-01-27T08:04:31;15.90;59.30
37806;DHT22;25082;50.870;0.022;2024-01-27T08:06:57;15.80;59.20
37806;DHT22;25082;50.870;0.022;2024-01-27T08:09:22;15.80;59.00
37806;DHT22;25082;50.870;0.022;2024-01-27T08:11:49;15.80;59.10
37806;DHT22;25082;50.870;0.022;2024-01-27T08:14:18;15.80;59.00
37806;DHT22;25082;50.870;0.022;2024-01-27T08:16:44;15.80;59.00
37806;DHT22;25082;50.870;0.022;2024-01-27T08:19:09;15.80;59.00
37806;DHT22;25082;50.870;0.022;2024-01-27T08:21:35;15.80;58.70
37806;DHT22;25082;50.870;0.022;2024-01-27T08:24:01;15.80;58.80
37806;DHT22;25082;50.870;0.022;2024-01-27T08:26:27;15.80;58.80
37806;DHT22;25082;50.870;0.022;2024-01-27T08:28:53;15.80;58.90
37806;DHT22;25082;50.870;0.022;2024-01-27T08:31:21;15.80;58.70
37806;DHT22;25082;50.870;0.022;2024-01-27T08:33:47;15.80;58.70
37806;DHT22;25082;50.870;0.022;2024-01-27T08:36:14;15.70;58.70
37806;DHT22;25082;50.870;0.022;2024-01-27T08:38:40;15.70;58.60
37806;DHT22;25082;50.870;0.022;2024-01-27T08:41:06;15.80;58.70
37806;DHT22;25082;50.870;0.022;2024-01-27T08:43:31;15.80;59.10
37806;DHT22;25082;50.870;0.022;2024-01-27T08:45:58;15.80;58.50
37806;DHT22;25082;50.870;0.022;2024-01-27T08:48:25;15.80;58.40
37806;DHT22;25082;50.870;0.022;2024-01-27T08:50:51;15.80;58.30
37806;DHT22;25082;50.870;0.022;2024-01-27T08:53:17;15.70;58.20
37806;DHT22;25082;50.870;0.022;2024-01-27T08:55:43;15.70;58.20
37806;DHT22;25082;50.870;0.022;2024-01-27T08:58:08;15.70;58.20
37806;DHT22;25082;50.870;0.022;2024-01-27T09:00:34;15.70;58.00
37806;DHT22;25082;50.870;0.022;2024-01-27T09:03:00;15.60;58.00
37806;DHT22;25082;50.870;0.022;2024-01-27T09:05:27;15.70;58.10
37806;DHT22;25082;50.870;0.022;2024-01-27T09:07:53;15.60;58.00
37806;DHT22;25082;50.870;0.022;2024-01-27T09:10:19;15.60;58.00
37806;DHT22;25082;50.870;0.022;2024-01-27T09:12:45;15.60;58.00
37806;DHT22;25082;50.870;0.022;2024-01-27T09:15:10;15.60;57.40
37806;DHT22;25082;50.870;0.022;2024-01-27T09:17:36;15.60;57.40
37806;DHT22;25082;50.870;0.022;2024-01-27T09:20:02;15.60;57.70
37806;DHT22;25082;50.870;0.022;2024-01-27T09:22:28;15.60;57.90
37806;DHT22;25082;50.870;0.022;2024-01-27T09:24:55;15.60;58.00
37806;DHT22;25082;50.870;0.022;2024-01-27T09:27:21;15.50;57.90
37806;DHT22;25082;50.870;0.022;2024-01-27T09:29:46;15.60;58.00
37806;DHT22;25082;50.870;0.022;2024-01-27T09:32:12;15.50;58.00
37806;DHT22;25082;50.870;0.022;2024-01-27T09:34:38;15.60;58.00
37806;DHT22;25082;50.870;0.022;2024-01-27T09:37:03;15.50;58.00
37806;DHT22;25082;50.870;0.022;2024-01-27T09:39:30;15.50;58.00
37806;DHT22;25082;50.870;0.022;2024-01-27T09:41:58;15.50;58.10
37806;DHT22;25082;50.870;0.022;2024-01-27T09:44:28;15.50;58.10
37806;DHT22;25082;50.870;0.022;2024-01-27T09:46:55;15.50;58.10
37806;DHT22;25082;50.870;0.022;2024-01-27T09:49:20;15.50;58.10
37806;DHT22;25082;50.870;0.022;2024-01-27T09:51:46;15.50;58.10
37806;DHT22;25082;50.870;0.022;2024-01-27T09:54:12;15.50;58.10
37806;DHT22;25082;50.870;0.022;2024-01-27T09:56:38;15.40;58.60
37806;DHT22;25082;50.870;0.022;2024-01-27T09:59:05;15.50;58.20
37806;DHT22;25082;50.870;0.022;2024-01-27T10:01:32;15.40;58.10
37806;DHT22;25082;50.870;0.022;2024-01-27T10:03:59;15.50;58.10
37806;DHT22;25082;50.870;0.022;2024-01-27T10:06:26;15.40;58.10
37806;DHT22;25082;50.870;0.022;2024-01-27T10:08:54;15.50;58.10
37806;DHT22;25082;50.870;0.022;2024-01-27T10:11:21;15.40;58.10
37806;DHT22;25082;50.870;0.022;2024-01-27T10:13:56;15.40;58.10
37806;DHT22;25082;50.870;0.022;2024-01-27T10:16:23;15.40;58.10
37806;DHT22;25082;50.870;0.022;2024-01-27T10:18:59;15.40;58.10
37806;DHT22;25082;50.870;0.022;2024-01-27T10:21:26;15.40;58.10
37806;DHT22;25082;50.870;0.022;2024-01-27T10:23:52;15.40;58.20
37806;DHT22;25082;50.870;0.022;2024-01-27T10:26:18;15.40;58.10
37806;DHT22;25082;50.870;0.022;2024-01-27T10:28:55;15.40;58.10
37806;DHT22;25082;50.870;0.022;2024-01-27T10:31:26;15.40;58.20
37806;DHT22;25082;50.870;0.022;2024-01-27T10:33:55;15.40;58.40
37806;DHT22;25082;50.870;0.022;2024-01-27T10:36:22;15.40;58.40
37806;DHT22;25082;50.870;0.022;2024-01-27T10:38:48;15.50;58.50
37806;DHT22;25082;50.870;0.022;2024-01-27T10:41:22;15.40;58.40
37806;DHT22;25082;50.870;0.022;2024-01-27T10:43:50;15.50;58.40
37806;DHT22;25082;50.870;0.022;2024-01-27T10:46:19;15.50;58.40
37806;DHT22;25082;50.870;0.022;2024-01-27T10:48:51;15.50;58.40
37806;DHT22;25082;50.870;0.022;2024-01-27T10:51:27;15.50;58.40
37806;DHT22;25082;50.870;0.022;2024-01-27T10:54:01;15.60;58.50
37806;DHT22;25082;50.870;0.022;2024-01-27T10:56:29;15.60;58.70
37806;DHT22;25082;50.870;0.022;2024-01-27T10:58:58;15.60;58.80
37806;DHT22;25082;50.870;0.022;2024-01-27T11:01:24;15.60;58.60
37806;DHT22;25082;50.870;0.022;2024-01-27T11:03:52;15.60;58.60
37806;DHT22;25082;50.870;0.022;2024-01-27T11:06:22;15.70;58.60
37806;DHT22;25082;50.870;0.022;2024-01-27T11:08:49;15.70;58.60
37806;DHT22;25082;50.870;0.022;2024-01-27T11:11:17;15.70;58.60
37806;DHT22;25082;50.870;0.022;2024-01-27T11:13:43;15.70;58.60
37806;DHT22;25082;50.870;0.022;2024-01-27T11:16:18;15.80;58.70
37806;DHT22;25082;50.870;0.022;2024-01-27T11:18:44;15.80;58.70
37806;DHT22;25082;50.870;0.022;2024-01-27T11:21:17;15.80;58.70
37806;DHT22;25082;50.870;0.022;2024-01-27T11:23:43;15.80;58.80
37806;DHT22;25082;50.870;0.022;2024-01-27T11:26:10;15.90;58.80
37806;DHT22;25082;50.870;0.022;2024-01-27T11:28:40;15.90;58.80
37806;DHT22;25082;50.870;0.022;2024-01-27T11:31:07;15.90;58.90
37806;DHT22;25082;50.870;0.022;2024-01-27T11:33:33;15.90;58.90
37806;DHT22;25082;50.870;0.022;2024-01-27T11:36:03;15.90;58.90
37806;DHT22;25082;50.870;0.022;2024-01-27T11:38:30;16.00;59.00
37806;DHT22;25082;50.870;0.022;2024-01-27T11:40:56;16.00;59.00
37806;DHT22;25082;50.870;0.022;2024-01-27T11:43:22;16.00;59.10
37806;DHT22;25082;50.870;0.022;2024-01-27T11:46:01;16.00;59.10
37806;DHT22;25082;50.870;0.022;2024-01-27T11:48:27;16.00;59.10
37806;DHT22;25082;50.870;0.022;2024-01-27T11:51:12;16.00;59.10
37806;DHT22;25082;50.870;0.022;2024-01-27T11:53:38;16.10;59.20
37806;DHT22;25082;50.870;0.022;2024-01-27T11:56:05;16.00;59.10
37806;DHT22;25082;50.870;0.022;2024-01-27T11:58:31;16.10;59.20
37806;DHT22;25082;50.870;0.022;2024-01-27T12:00:57;16.10;59.20
37806;DHT22;25082;50.870;0.022;2024-01-27T12:03:27;16.10;59.20
37806;DHT22;25082;50.870;0.022;2024-01-27T12:05:54;16.10;59.20
37806;DHT22;25082;50.870;0.022;2024-01-27T12:08:20;16.10;59.10
37806;DHT22;25082;50.870;0.022;2024-01-27T12:10:46;16.20;59.20
37806;DHT22;25082;50.870;0.022;2024-01-27T12:13:12;16.20;59.10
37806;DHT22;25082;50.870;0.022;2024-01-27T12:15:38;16.00;56.70
37806;DHT22;25082;50.870;0.022;2024-01-27T12:18:06;16.00;58.40
37806;DHT22;25082;50.870;0.022;2024-01-27T12:20:32;16.00;59.40
37806;DHT22;25082;50.870;0.022;2024-01-27T12:23:05;16.10;59.40
37806;DHT22;25082;50.870;0.022;2024-01-27T12:25:31;16.10;59.60
37806;DHT22;25082;50.870;0.022;2024-01-27T12:28:01;16.20;59.60
37806;DHT22;25082;50.870;0.022;2024-01-27T12:30:27;16.20;59.40
37806;DHT22;25082;50.870;0.022;2024-01-27T12:32:53;16.30;59.50
37806;DHT22;25082;50.870;0.022;2024-01-27T12:35:19;16.30;59.30
37806;DHT22;25082;50.870;0.022;2024-01-27T12:37:46;16.30;59.40
37806;DHT22;25082;50.870;0.022;2024-01-27T12:40:22;16.40;59.40
37806;DHT22;25082;50.870;0.022;2024-01-27T12:42:49;16.40;59.20
37806;DHT22;25082;50.870;0.022;2024-01-27T12:45:15;16.40;59.10
37806;DHT22;25082;50.870;0.022;2024-01-27T12:47:41;16.50;59.10
37806;DHT22;25082;50.870;0.022;2024-01-27T12:50:08;16.60;59.10
37806;DHT22;25082;50.870;0.022;2024-01-27T12:52:34;16.60;59.00
37806;DHT22;25082;50.870;0.022;2024-01-27T12:55:00;16.70;59.10
37806;DHT22;25082;50.870;0.022;2024-01-27T12:57:26;16.70;59.00
37806;DHT22;25082;50.870;0.022;2024-01-27T12:59:52;16.80;59.40
37806;DHT22;25082;50.870;0.022;2024-01-27T13:02:17;16.80;59.30
37806;DHT22;25082;50.870;0.022;2024-01-27T13:04:43;16.90;59.40
37806;DHT22;25082;50.870;0.022;2024-01-27T13:07:09;16.90;59.30
37806;DHT22;25082;50.870;0.022;2024-01-27T13:09:36;17.10;59.30
37806;DHT22;25082;50.870;0.022;2024-01-27T13:12:03;17.10;59.10
37806;DHT22;25082;50.870;0.022;2024-01-27T13:14:29;17.10;59.10
37806;DHT22;25082;50.870;0.022;2024-01-27T13:16:55;17.10;59.20
37806;DHT22;25082;50.870;0.022;2024-01-27T13:19:22;17.10;59.40
37806;DHT22;25082;50.870;0.022;2024-01-27T13:21:48;17.10;59.60
37806;DHT22;25082;50.870;0.022;2024-01-27T13:24:14;17.10;59.90
37806;DHT22;25082;50.870;0.022;2024-01-27T13:26:40;17.00;60.20
37806;DHT22;25082;50.870;0.022;2024-01-27T13:29:06;17.00;60.40
37806;DHT22;25082;50.870;0.022;2024-01-27T13:31:34;17.00;60.70
37806;DHT22;25082;50.870;0.022;2024-01-27T13:34:00;17.00;60.80
37806;DHT22;25082;50.870;0.022;2024-01-27T13:36:27;17.00;61.00
37806;DHT22;25082;50.870;0.022;2024-01-27T13:38:53;17.00;61.10
37806;DHT22;25082;50.870;0.022;2024-01-27T13:41:19;17.00;61.20
37806;DHT22;25082;50.870;0.022;2024-01-27T13:43:45;17.00;61.30
37806;DHT22;25082;50.870;0.022;2024-01-27T13:46:11;17.00;61.30
37806;DHT22;25082;50.870;0.022;2024-01-27T13:48:37;17.00;61.30
37806;DHT22;25082;50.870;0.022;2024-01-27T13:51:04;17.10;61.40
37806;DHT22;25082;50.870;0.022;2024-01-27T13:53:30;17.10;61.40
37806;DHT22;25082;50.870;0.022;2024-01-27T13:55:56;17.10;61.40
37806;DHT22;25082;50.870;0.022;2024-01-27T13:58:22;17.10;61.40
37806;DHT22;25082;50.870;0.022;2024-01-27T14:00:48;17.10;61.50
37806;DHT22;25082;50.870;0.022;2024-01-27T14:03:14;17.20;61.40
37806;DHT22;25082;50.870;0.022;2024-01-27T14:05:40;17.10;61.20
37806;DHT22;25082;50.870;0.022;2024-01-27T14:08:07;17.10;61.00
37806;DHT22;25082;50.870;0.022;2024-01-27T14:10:35;17.10;61.20
37806;DHT22;25082;50.870;0.022;2024-01-27T14:13:01;17.10;60.70
37806;DHT22;25082;50.870;0.022;2024-01-27T14:15:30;17.10;60.90
37806;DHT22;25082;50.870;0.022;2024-01-27T14:17:56;17.10;61.00
37806;DHT22;25082;50.870;0.022;2024-01-27T14:20:22;17.10;61.00
37806;DHT22;25082;50.870;0.022;2024-01-27T14:22:48;17.10;61.00
37806;DHT22;25082;50.870;0.022;2024-01-27T14:25:15;17.10;61.10
37806;DHT22;25082;50.870;0.022;2024-01-27T14:27:41;17.10;61.00
37806;DHT22;25082;50.870;0.022;2024-01-27T14:30:08;17.20;61.10
37806;DHT22;25082;50.870;0.022;2024-01-27T14:32:36;17.20;61.10
37806;DHT22;25082;50.870;0.022;2024-01-27T14:35:02;17.20;61.10
37806;DHT22;25082;50.870;0.022;2024-01-27T14:37:32;17.20;61.10
37806;DHT22;25082;50.870;0.022;2024-01-27T14:39:58;17.30;61.20
37806;DHT22;25082;50.870;0.022;2024-01-27T14:42:24;17.30;61.20
37806;DHT22;25082;50.870;0.022;2024-01-27T14:44:50;17.30;61.20
37806;DHT22;25082;50.870;0.022;2024-01-27T14:47:19;17.30;61.20
37806;DHT22;25082;50.870;0.022;2024-01-27T14:49:46;17.30;61.40
37806;DHT22;25082;50.870;0.022;2024-01-27T14:52:12;17.30;61.20
37806;DHT22;25082;50.870;0.022;2024-01-27T14:54:38;17.30;61.20
37806;DHT22;25082;50.870;0.022;2024-01-27T14:57:07;17.40;61.20
37806;DHT22;25082;50.870;0.022;2024-01-27T14:59:36;17.40;61.80
37806;DHT22;25082;50.870;0.022;2024-01-27T15:02:04;17.40;61.20
37806;DHT22;25082;50.870;0.022;2024-01-27T15:04:32;17.40;61.70
37806;DHT22;25082;50.870;0.022;2024-01-27T15:06:59;17.40;61.00
37806;DHT22;25082;50.870;0.022;2024-01-27T15:09:25;17.40;61.00
37806;DHT22;25082;50.870;0.022;2024-01-27T15:11:51;17.50;61.00
37806;DHT22;25082;50.870;0.022;2024-01-27T15:14:17;17.50;61.00
37806;DHT22;25082;50.870;0.022;2024-01-27T15:16:45;17.50;61.00
37806;DHT22;25082;50.870;0.022;2024-01-27T15:19:11;17.50;61.20
37806;DHT22;25082;50.870;0.022;2024-01-27T15:21:37;17.50;61.00
37806;DHT22;25082;50.870;0.022;2024-01-27T15:24:03;17.50;61.00
37806;DHT22;25082;50.870;0.022;2024-01-27T15:26:29;17.50;61.10